»·PEaware :: N145JS KLAS-KVNY

N145JS :: KLAS-KVNY

FLIGHT INFORMATION

Flight Status: Arrived
Operator: Privately registered:
United States
More flights under this callsign
Pilot: Dylan D. (42196)
Aircraft: BEECH AIRCRAFT PREMIER
(PRM1)
More flights by this aircraft type
Origin: KLAS Harry Reid Intl
United States
Destination: KVNY Van Nuys
United States
More flights between these airports :: More routes between these airports
Route: RADYR2 BLAQQ KREME JANNY5
File this flight plan on PilotEdge
Remarks:
Altitude:
(Current/Filed)
24,000ft
Speed:
(Current/Filed)
320kts
Departed: 14-Nov-22 07:19 PM
Arrived: 14-Nov-22 08:07 PM
Distance/Time
Traveled:
199nm/0:48
Distance/Time
To Go:
Arrived

Flight Plot

Page will automatically refresh every two minutes.

Flight plan parsing failed; only flown route is shown


Map Options




Map Legend


Flown Route
Filed Route
Departure Airport
Arrival Airport
Navaid (VOR, NDB)
Fix

Horizontal Profiles

Position Reports

Time Latitude Longitude Heading Altitude Ground
Speed
14-Nov-22 19:07 36.082660 -115.170046 88 2167ft 0kts
14-Nov-22 19:08 36.082660 -115.170046 88 2167ft 0kts
14-Nov-22 19:09 36.082660 -115.170046 88 2167ft 0kts
14-Nov-22 19:10 36.082660 -115.170046 88 2167ft 0kts
14-Nov-22 19:11 36.082660 -115.170046 88 2167ft 0kts
14-Nov-22 19:12 36.082660 -115.170046 88 2167ft 0kts
14-Nov-22 19:13 36.082660 -115.170046 88 2167ft 0kts
14-Nov-22 19:14 36.082660 -115.170046 88 2167ft 0kts
14-Nov-22 19:15 36.082660 -115.170046 88 2167ft 0kts
14-Nov-22 19:16 36.082660 -115.170046 88 2167ft 0kts
14-Nov-22 19:17 36.084640 -115.168139 18 2159ft 30kts
14-Nov-22 19:18 36.092340 -115.163002 24 2121ft 46kts
14-Nov-22 19:19 36.099724 -115.157977 73 2089ft 0kts
14-Nov-22 19:20 36.099726 -115.157969 73 2089ft 0kts
14-Nov-22 19:21 36.099164 -115.156781 190 2087ft 17kts
14-Nov-22 19:22 36.070327 -115.173629 202 2708ft 220kts
14-Nov-22 19:23 36.009413 -115.206336 202 6163ft 247kts
14-Nov-22 19:24 35.944268 -115.236303 199 9396ft 258kts
14-Nov-22 19:25 35.875297 -115.267606 198 12871ft 269kts
14-Nov-22 19:26 35.803824 -115.299959 198 16069ft 281kts
14-Nov-22 19:27 35.729541 -115.333539 199 18894ft 292kts
14-Nov-22 19:28 35.652664 -115.368221 199 21377ft 302kts
14-Nov-22 19:29 35.570488 -115.384568 178 23559ft 311kts
14-Nov-22 19:30 35.477414 -115.378541 176 23998ft 365kts
14-Nov-22 19:31 35.394359 -115.438751 254 24005ft 409kts
14-Nov-22 19:32 35.335730 -115.556015 231 23990ft 408kts
14-Nov-22 19:33 35.267509 -115.665215 231 24228ft 404kts
14-Nov-22 19:34 35.199020 -115.774541 231 24210ft 407kts
14-Nov-22 19:35 35.129937 -115.884471 231 24185ft 408kts
14-Nov-22 19:36 35.060917 -115.993959 231 24172ft 408kts
14-Nov-22 19:37 34.991673 -116.103568 230 24187ft 407kts
14-Nov-22 19:38 34.923894 -116.211921 237 24087ft 402kts
14-Nov-22 19:39 34.873425 -116.335809 241 23229ft 410kts
14-Nov-22 19:40 34.825683 -116.458543 241 23191ft 390kts
14-Nov-22 19:41 34.786441 -116.578197 256 22770ft 389kts
14-Nov-22 19:42 34.772634 -116.709621 259 22192ft 385kts
14-Nov-22 19:43 34.760273 -116.836499 259 22192ft 373kts
14-Nov-22 19:44 34.747846 -116.960519 259 22198ft 368kts
14-Nov-22 19:45 34.735283 -117.083884 259 22212ft 367kts
14-Nov-22 19:46 34.722619 -117.207250 259 22220ft 369kts
14-Nov-22 19:47 34.709731 -117.330985 259 21679ft 385kts
14-Nov-22 19:48 34.696661 -117.455797 259 17887ft 363kts
14-Nov-22 19:49 34.684972 -117.566166 259 15427ft 323kts
14-Nov-22 19:50 34.673688 -117.672586 259 14013ft 300kts
14-Nov-22 19:51 34.662932 -117.773725 259 13994ft 303kts
14-Nov-22 19:52 34.652022 -117.875392 259 13981ft 304kts
14-Nov-22 19:53 34.640630 -117.979609 259 13004ft 312kts
14-Nov-22 19:54 34.627626 -118.079759 252 12989ft 288kts
14-Nov-22 19:55 34.605500 -118.179791 253 10453ft 338kts
14-Nov-22 19:56 34.581663 -118.287096 254 7999ft 300kts
14-Nov-22 19:57 34.563041 -118.370521 254 7981ft 224kts
14-Nov-22 19:58 34.547476 -118.439832 253 8002ft 216kts
14-Nov-22 19:59 34.518196 -118.498308 201 7044ft 210kts
14-Nov-22 20:00 34.464129 -118.514616 180 6005ft 170kts
14-Nov-22 20:01 34.411946 -118.518467 181 5169ft 205kts
14-Nov-22 20:02 34.357461 -118.505432 166 4274ft 205kts
14-Nov-22 20:03 34.303391 -118.498489 174 3206ft 176kts
14-Nov-22 20:04 34.257659 -118.494772 177 1878ft 137kts
14-Nov-22 20:05 34.217809 -118.491246 168 962ft 146kts
14-Nov-22 20:06 34.197025 -118.489876 252 808ft 0kts
14-Nov-22 20:07 34.199724 -118.490529 352 808ft 0kts

Navigation Log

Ident Type
Flight plan parsing failed, navigation log unavailable